Time;durP1;ratioP1;P1;durP2;ratioP2;P2;SDS_P1;SDS_P2;PMS_P1;PMS_P2;Temp;Humidity;BMP_temperature;BMP_pressure;BME280_temperature;BME280_humidity;BME280_pressure;Samples;Min_cycle;Max_cycle;Signal;HPM_P1;HPM_P2
2024/04/01 00:01:10;;;;;;;8.50;2.20;;;11.70;97.00;;;;;;5051120;28;20620;-74
2024/04/01 00:03:35;;;;;;;3.20;1.57;;;11.70;97.30;;;;;;5012779;28;20198;-74
2024/04/01 00:06:02;;;;;;;1.93;1.70;;;11.70;97.40;;;;;;5058021;28;20690;-74
2024/04/01 00:08:28;;;;;;;1.77;1.23;;;11.60;97.50;;;;;;5011735;28;20218;-73
2024/04/01 00:10:56;;;;;;;6.10;2.07;;;11.50;97.80;;;;;;5006790;28;20968;-73
2024/04/01 00:13:22;;;;;;;6.43;1.53;;;11.50;98.10;;;;;;5000035;28;20641;-73
2024/04/01 00:15:49;;;;;;;1.40;1.03;;;11.40;98.40;;;;;;5027429;28;20633;-73
2024/04/01 00:18:14;;;;;;;2.87;1.37;;;11.40;98.50;;;;;;5066551;28;20207;-73
2024/04/01 00:20:41;;;;;;;3.33;1.83;;;11.40;98.80;;;;;;5025270;28;20724;-73
2024/04/01 00:23:07;;;;;;;3.23;1.40;;;11.40;99.20;;;;;;5041871;28;20263;-73
2024/04/01 00:25:34;;;;;;;4.20;1.87;;;11.30;99.50;;;;;;5051317;28;21176;-73
2024/04/01 00:28:01;;;;;;;3.20;2.90;;;11.30;99.80;;;;;;5031527;28;20206;-74
2024/04/01 00:30:31;;;;;;;4.77;1.70;;;11.30;99.90;;;;;;5022662;28;21004;-74
2024/04/01 00:32:56;;;;;;;4.03;1.60;;;11.30;99.90;;;;;;5025693;28;20625;-73
2024/04/01 00:35:23;;;;;;;5.17;1.20;;;11.20;99.90;;;;;;5034088;28;20628;-73
2024/04/01 00:37:49;;;;;;;3.70;1.90;;;11.20;99.90;;;;;;5006728;28;20212;-74
2024/04/01 00:40:16;;;;;;;6.80;1.60;;;11.20;99.90;;;;;;5044229;28;20621;-74
2024/04/01 00:42:42;;;;;;;2.27;1.60;;;11.20;99.90;;;;;;5055506;28;20199;-73
2024/04/01 00:45:10;;;;;;;3.60;2.13;;;11.10;99.90;;;;;;5013251;28;21088;-73
2024/04/01 00:47:36;;;;;;;2.30;1.87;;;11.10;99.90;;;;;;4981749;28;20562;-74
2024/04/01 00:50:03;;;;;;;1.90;1.60;;;11.10;99.90;;;;;;5008265;28;20632;-73
2024/04/01 00:52:29;;;;;;;1.80;1.50;;;11.20;99.90;;;;;;5033422;28;20628;-74
2024/04/01 00:54:58;;;;;;;2.40;1.90;;;11.30;99.90;;;;;;5040249;28;21268;-74
2024/04/01 00:57:24;;;;;;;7.90;2.00;;;11.20;99.90;;;;;;5043511;28;20633;-74
2024/04/01 00:59:54;;;;;;;6.10;1.80;;;11.20;99.90;;;;;;4993534;28;20639;-74
2024/04/01 01:02:22;;;;;;;3.87;1.87;;;11.20;99.90;;;;;;5048158;28;20977;-74
2024/04/01 01:04:49;;;;;;;4.30;1.93;;;11.20;99.90;;;;;;4986051;28;20630;-74
2024/04/01 01:07:16;;;;;;;3.17;1.90;;;11.10;99.90;;;;;;5009557;28;20676;-74
2024/04/01 01:09:43;;;;;;;2.37;1.70;;;11.00;99.90;;;;;;5054838;28;21314;-74
2024/04/01 01:12:09;;;;;;;7.30;1.53;;;11.00;99.90;;;;;;5036610;28;20643;-74
2024/04/01 01:14:36;;;;;;;2.33;1.80;;;11.10;99.90;;;;;;4989077;28;20723;-74
2024/04/01 01:17:02;;;;;;;2.10;1.60;;;11.20;99.90;;;;;;5015468;28;20292;-74
2024/04/01 01:19:31;;;;;;;2.47;1.70;;;11.10;99.90;;;;;;5050666;28;20634;-74
2024/04/01 01:22:05;;;;;;;4.77;4.37;;;11.10;99.90;;;;;;5055205;28;21193;-74
2024/04/01 01:24:34;;;;;;;4.87;1.90;;;11.10;99.90;;;;;;5036870;28;20660;-74
2024/04/01 01:27:00;;;;;;;10.23;2.37;;;11.00;99.90;;;;;;5054196;28;21125;-74
2024/04/01 01:29:29;;;;;;;5.90;1.70;;;10.90;99.90;;;;;;5008977;28;20724;-74
2024/04/01 01:31:55;;;;;;;4.57;1.50;;;10.90;99.90;;;;;;4982747;28;20641;-74
2024/04/01 01:34:22;;;;;;;4.10;1.57;;;10.90;99.90;;;;;;5024034;28;20702;-74
2024/04/01 01:36:48;;;;;;;3.40;2.77;;;11.00;99.90;;;;;;5020814;28;20970;-74
2024/04/01 01:39:15;;;;;;;5.23;2.07;;;11.00;99.90;;;;;;5008327;28;20740;-74
2024/04/01 01:41:42;;;;;;;2.90;1.70;;;10.90;99.90;;;;;;5034931;28;20202;-74
2024/04/01 01:44:09;;;;;;;9.83;2.10;;;10.80;99.90;;;;;;5017742;28;21032;-74
2024/04/01 01:46:36;;;;;;;2.73;1.60;;;10.80;99.90;;;;;;4988602;28;20663;-74
2024/04/01 01:49:03;;;;;;;4.60;1.70;;;10.80;99.90;;;;;;5032212;28;20996;-74
2024/04/01 01:51:31;;;;;;;4.07;1.50;;;10.70;99.90;;;;;;5035036;28;21040;-74
2024/04/01 01:53:58;;;;;;;2.50;1.77;;;10.70;99.90;;;;;;5036942;28;20624;-74
2024/04/01 01:56:24;;;;;;;5.53;1.93;;;10.60;99.90;;;;;;4992146;28;21255;-74
2024/04/01 01:58:53;;;;;;;7.80;2.13;;;10.70;99.90;;;;;;5032524;28;20711;-74
2024/04/01 02:01:19;;;;;;;6.33;1.60;;;10.70;99.90;;;;;;5044357;28;21227;-74
2024/04/01 02:03:46;;;;;;;1.90;1.60;;;10.70;99.90;;;;;;4986314;28;20629;-74
2024/04/01 02:06:15;;;;;;;6.87;1.70;;;10.70;99.90;;;;;;5063381;28;20658;-74
2024/04/01 02:08:42;;;;;;;4.90;1.83;;;10.60;99.90;;;;;;5003081;28;20629;-74
2024/04/01 02:11:12;;;;;;;5.57;1.83;;;10.50;99.90;;;;;;5037904;28;20977;-74
2024/04/01 02:13:39;;;;;;;5.33;2.07;;;10.50;99.90;;;;;;5043468;28;20635;-74
2024/04/01 02:16:08;;;;;;;1.50;1.37;;;10.50;99.90;;;;;;5019131;28;20618;-74
2024/04/01 02:18:35;;;;;;;3.33;1.80;;;10.60;99.90;;;;;;5054915;28;20644;-74
2024/04/01 02:21:02;;;;;;;2.77;1.50;;;10.60;99.90;;;;;;5042909;28;20761;-74
2024/04/01 02:23:31;;;;;;;9.30;1.37;;;10.60;99.90;;;;;;5061665;28;21059;-74
2024/04/01 02:26:01;;;;;;;2.20;1.67;;;10.60;99.90;;;;;;5013760;28;20625;-74
2024/04/01 02:28:30;;;;;;;6.30;1.97;;;10.60;99.90;;;;;;5030154;28;20735;-74
2024/04/01 02:30:56;;;;;;;2.77;1.77;;;10.60;99.90;;;;;;4986053;28;20654;-74
2024/04/01 02:33:24;;;;;;;4.20;1.97;;;10.60;99.90;;;;;;5038968;28;20950;-74
2024/04/01 02:35:51;;;;;;;3.00;1.70;;;10.50;99.90;;;;;;5062374;28;20774;-74
2024/04/01 02:38:18;;;;;;;4.70;1.60;;;10.40;99.90;;;;;;5020410;28;20714;-74
2024/04/01 02:40:44;;;;;;;2.70;1.57;;;10.30;99.90;;;;;;5007222;28;20661;-74
2024/04/01 02:43:11;;;;;;;2.50;1.60;;;10.30;99.90;;;;;;5030717;28;20632;-74
2024/04/01 02:45:37;;;;;;;4.10;1.40;;;10.30;99.90;;;;;;5028613;28;20641;-74
2024/04/01 02:48:06;;;;;;;4.93;2.00;;;10.30;99.90;;;;;;5029547;28;20681;-74
2024/04/01 02:50:33;;;;;;;3.70;1.77;;;10.30;99.90;;;;;;4995288;28;21250;-74
2024/04/01 02:53:00;;;;;;;2.30;1.77;;;10.30;99.90;;;;;;5048372;28;21005;-74
2024/04/01 02:55:27;;;;;;;3.50;1.80;;;10.40;99.90;;;;;;5055084;28;20638;-74
2024/04/01 02:57:54;;;;;;;2.10;1.80;;;10.30;99.90;;;;;;5069459;28;20992;-74
2024/04/01 03:00:20;;;;;;;2.60;1.67;;;10.20;99.90;;;;;;5012428;28;20632;-74
2024/04/01 03:02:48;;;;;;;4.93;1.70;;;10.20;99.90;;;;;;5001708;28;21206;-74
2024/04/01 03:05:15;;;;;;;4.00;1.30;;;10.20;99.90;;;;;;4999833;28;20628;-74
2024/04/01 03:07:44;;;;;;;2.20;1.70;;;10.20;99.90;;;;;;5050434;28;20715;-74
2024/04/01 03:10:12;;;;;;;3.30;1.60;;;10.30;99.90;;;;;;5021373;28;20673;-74
2024/04/01 03:12:39;;;;;;;3.30;1.37;;;10.30;99.90;;;;;;5056938;28;20629;-74
2024/04/01 03:15:06;;;;;;;5.27;1.77;;;10.20;99.90;;;;;;5052150;28;20710;-74
2024/04/01 03:17:33;;;;;;;2.43;2.27;;;10.10;99.90;;;;;;4982994;28;20631;-74
2024/04/01 03:19:59;;;;;;;3.00;2.00;;;10.20;99.90;;;;;;5000050;28;20960;-75
2024/04/01 03:22:27;;;;;;;2.63;1.70;;;10.20;99.90;;;;;;5037862;28;20623;-74
2024/04/01 03:24:55;;;;;;;2.27;1.70;;;10.20;99.90;;;;;;4998440;28;20626;-74
2024/04/01 03:27:22;;;;;;;5.40;1.60;;;10.00;99.90;;;;;;5060728;28;20724;-74
2024/04/01 03:29:48;;;;;;;4.03;1.63;;;10.00;99.90;;;;;;5006836;28;20639;-74
2024/04/01 03:32:16;;;;;;;3.97;2.07;;;10.00;99.90;;;;;;5003705;28;20637;-74
2024/04/01 03:34:46;;;;;;;2.13;1.43;;;10.10;99.90;;;;;;5051477;28;20628;-75
2024/04/01 03:37:13;;;;;;;3.50;1.93;;;10.10;99.90;;;;;;5041694;28;20626;-74
2024/04/01 03:39:40;;;;;;;4.40;4.10;;;10.10;99.90;;;;;;5024462;28;21004;-74
2024/04/01 03:42:08;;;;;;;2.47;1.80;;;10.00;99.90;;;;;;4994906;28;20727;-73
2024/04/01 03:44:34;;;;;;;1.70;1.60;;;10.10;99.90;;;;;;5025124;28;20640;-74
2024/04/01 03:47:00;;;;;;;3.37;1.80;;;10.10;99.90;;;;;;4994208;28;20665;-74
2024/04/01 03:49:27;;;;;;;7.00;1.87;;;10.20;99.90;;;;;;5022163;28;21001;-74
2024/04/01 03:51:53;;;;;;;1.70;1.60;;;10.10;99.90;;;;;;5030300;28;20205;-74
2024/04/01 03:54:20;;;;;;;4.27;1.67;;;10.10;99.90;;;;;;5018834;28;20623;-74
2024/04/01 03:56:45;;;;;;;2.80;1.70;;;9.90;99.90;;;;;;5027031;28;20205;-74
2024/04/01 03:59:13;;;;;;;3.93;1.97;;;9.90;99.90;;;;;;5050925;28;20643;-74
2024/04/01 04:01:40;;;;;;;3.50;2.00;;;10.00;99.90;;;;;;5060549;28;20276;-74
2024/04/01 04:04:07;;;;;;;2.90;2.70;;;10.00;99.90;;;;;;5022904;28;20721;-74
2024/04/01 04:06:33;;;;;;;6.63;3.77;;;10.00;99.90;;;;;;5043513;28;21079;-74
2024/04/01 04:09:00;;;;;;;6.10;2.67;;;9.90;99.90;;;;;;5023120;28;20731;-74
2024/04/01 04:11:26;;;;;;;4.27;3.77;;;10.00;99.90;;;;;;5004520;28;20206;-74
2024/04/01 04:13:52;;;;;;;4.30;2.50;;;10.00;99.90;;;;;;5054863;28;20626;-74
2024/04/01 04:16:20;;;;;;;8.50;2.17;;;9.90;99.90;;;;;;4997874;28;20208;-74
2024/04/01 04:18:46;;;;;;;1.97;1.57;;;9.90;99.90;;;;;;5020767;28;20630;-74
2024/04/01 04:21:13;;;;;;;1.67;1.43;;;10.00;99.90;;;;;;5009673;28;21033;-74
2024/04/01 04:23:39;;;;;;;2.53;1.40;;;10.00;99.90;;;;;;5039426;28;20619;-74
2024/04/01 04:26:08;;;;;;;2.40;1.73;;;9.90;99.90;;;;;;5036655;28;20196;-74
2024/04/01 04:28:35;;;;;;;1.83;1.60;;;9.80;99.90;;;;;;5059736;28;20678;-74
2024/04/01 04:31:01;;;;;;;3.33;1.80;;;9.70;99.90;;;;;;5026983;28;20634;-73
2024/04/01 04:33:29;;;;;;;1.80;1.40;;;9.70;99.90;;;;;;5034492;28;21158;-74
2024/04/01 04:35:55;;;;;;;5.87;2.13;;;9.70;99.90;;;;;;5021443;28;20681;-74
2024/04/01 04:38:22;;;;;;;4.07;2.40;;;9.70;99.90;;;;;;5015962;28;20663;-74
2024/04/01 04:40:49;;;;;;;2.33;1.77;;;9.80;99.90;;;;;;5027381;28;20556;-74
2024/04/01 04:43:16;;;;;;;2.43;2.23;;;9.80;99.90;;;;;;5001118;28;20641;-74
2024/04/01 04:45:48;;;;;;;2.80;1.77;;;9.80;99.90;;;;;;5038051;28;21075;-74
2024/04/01 04:48:15;;;;;;;6.10;1.77;;;9.80;99.90;;;;;;5029496;28;20652;-74
2024/04/01 04:50:42;;;;;;;4.00;2.10;;;9.80;99.90;;;;;;4999084;28;20626;-73
2024/04/01 04:53:09;;;;;;;4.63;3.30;;;9.70;99.90;;;;;;4995185;28;20625;-74
2024/04/01 04:55:34;;;;;;;6.07;3.00;;;9.70;99.90;;;;;;5043206;28;20622;-74
2024/04/01 04:58:01;;;;;;;2.20;2.00;;;9.70;99.90;;;;;;5037872;28;20633;-74
2024/04/01 05:00:27;;;;;;;2.30;2.10;;;9.70;99.90;;;;;;4998762;28;20203;-74
2024/04/01 05:02:54;;;;;;;5.33;3.17;;;9.60;99.90;;;;;;5034199;28;20623;-74
2024/04/01 05:05:19;;;;;;;4.90;3.63;;;9.60;99.90;;;;;;5042168;28;20639;-74
2024/04/01 05:07:50;;;;;;;4.17;3.67;;;9.70;99.90;;;;;;5001908;28;20684;-73
2024/04/01 05:10:16;;;;;;;10.20;3.70;;;9.70;99.90;;;;;;4987934;28;20203;-74
2024/04/01 05:12:43;;;;;;;2.30;2.10;;;9.70;99.90;;;;;;4985417;28;20642;-74
2024/04/01 05:15:09;;;;;;;13.60;3.47;;;9.70;99.90;;;;;;5001082;28;20626;-74
2024/04/01 05:17:37;;;;;;;2.23;1.97;;;9.70;99.90;;;;;;4997905;28;20639;-74
2024/04/01 05:20:04;;;;;;;1.90;1.70;;;9.70;99.90;;;;;;4978440;28;20634;-74
2024/04/01 05:22:31;;;;;;;2.77;2.17;;;9.60;99.90;;;;;;5006519;28;21231;-73
2024/04/01 05:24:58;;;;;;;6.13;2.40;;;9.60;99.90;;;;;;4985584;28;20633;-73
2024/04/01 05:27:25;;;;;;;1.87;1.60;;;9.70;99.90;;;;;;4987199;28;21221;-73
2024/04/01 05:30:02;;;;;;;6.23;4.50;;;9.60;99.90;;;;;;5011978;28;21038;-73
2024/04/01 05:32:29;;;;;;;2.73;2.37;;;9.70;99.90;;;;;;4994771;28;20637;-73
2024/04/01 05:34:55;;;;;;;2.87;1.90;;;9.60;99.90;;;;;;4980178;28;20623;-73
2024/04/01 05:37:22;;;;;;;2.80;2.27;;;9.60;99.90;;;;;;4984985;28;20623;-73
2024/04/01 05:39:49;;;;;;;2.20;1.97;;;9.60;99.90;;;;;;4993011;28;20629;-73
2024/04/01 05:42:17;;;;;;;2.30;1.93;;;9.60;99.90;;;;;;4990213;28;20634;-75
2024/04/01 05:44:43;;;;;;;2.70;2.17;;;9.60;99.90;;;;;;5019371;28;20744;-74
2024/04/01 05:47:10;;;;;;;3.37;3.07;;;9.60;99.90;;;;;;5006273;28;20661;-73
2024/04/01 05:49:36;;;;;;;2.33;2.03;;;9.50;99.90;;;;;;4998280;28;20206;-73
2024/04/01 05:52:03;;;;;;;3.20;2.33;;;9.60;99.90;;;;;;5006638;28;20628;-73
2024/04/01 05:54:29;;;;;;;4.10;3.00;;;9.60;99.90;;;;;;4999779;28;20976;-73
2024/04/01 05:56:56;;;;;;;3.13;2.77;;;9.60;99.90;;;;;;5035414;28;20732;-73
2024/04/01 05:59:25;;;;;;;3.50;3.00;;;9.50;99.90;;;;;;5032612;28;20635;-73
2024/04/01 06:01:52;;;;;;;4.33;3.27;;;9.50;99.90;;;;;;4996403;28;21088;-73
2024/04/01 06:04:19;;;;;;;3.50;3.20;;;9.60;99.90;;;;;;5033722;28;21162;-73
2024/04/01 06:06:46;;;;;;;2.57;2.40;;;9.50;99.90;;;;;;4999113;28;20622;-73
2024/04/01 06:09:13;;;;;;;2.40;2.20;;;9.50;99.90;;;;;;5036476;28;20638;-73
2024/04/01 06:11:40;;;;;;;3.10;2.80;;;9.50;99.90;;;;;;5022454;28;20626;-74
2024/04/01 06:14:06;;;;;;;4.10;3.50;;;9.50;99.90;;;;;;5070973;28;20621;-74
2024/04/01 06:16:34;;;;;;;2.97;2.60;;;9.50;99.90;;;;;;5042806;28;20629;-74
2024/04/01 06:19:00;;;;;;;2.90;2.70;;;9.50;99.90;;;;;;5019880;28;20188;-78
2024/04/01 06:21:26;;;;;;;4.07;3.67;;;9.60;99.90;;;;;;5022865;28;20980;-76
2024/04/01 06:23:52;;;;;;;5.20;3.77;;;9.50;99.90;;;;;;5038389;28;20208;-76
2024/04/01 06:26:19;;;;;;;2.50;2.30;;;9.50;99.90;;;;;;5053031;28;21178;-76
2024/04/01 06:28:48;;;;;;;6.07;4.03;;;9.50;99.90;;;;;;5019012;28;20679;-76
2024/04/01 06:31:15;;;;;;;4.93;2.17;;;9.40;99.90;;;;;;5014169;28;20621;-74
2024/04/01 06:33:42;;;;;;;2.50;1.90;;;9.50;99.90;;;;;;5002607;28;20636;-75
2024/04/01 06:36:09;;;;;;;2.47;2.17;;;9.60;99.90;;;;;;5036756;28;21243;-75
2024/04/01 06:38:36;;;;;;;4.10;2.13;;;9.60;99.90;;;;;;5045165;28;20633;-74
2024/04/01 06:41:02;;;;;;;3.03;1.90;;;9.60;99.90;;;;;;4988369;28;20653;-75
2024/04/01 06:43:29;;;;;;;4.13;2.10;;;9.70;99.90;;;;;;4972868;28;20649;-74
2024/04/01 06:45:57;;;;;;;2.50;1.90;;;9.70;99.90;;;;;;4975042;28;20746;-74
2024/04/01 06:48:24;;;;;;;2.97;2.37;;;9.70;99.90;;;;;;4973041;28;20673;-74
2024/04/01 06:50:52;;;;;;;3.10;2.30;;;9.70;99.90;;;;;;4978561;28;20721;-74
2024/04/01 06:53:18;;;;;;;2.27;2.13;;;9.70;99.90;;;;;;4981464;28;21227;-75
2024/04/01 06:55:45;;;;;;;2.87;2.50;;;9.70;99.90;;;;;;4996415;28;20704;-74
2024/04/01 06:58:11;;;;;;;2.37;2.17;;;9.70;99.90;;;;;;4979945;28;20641;-74
2024/04/01 07:00:38;;;;;;;2.60;2.10;;;9.70;99.90;;;;;;5007093;28;20638;-75
2024/04/01 07:03:05;;;;;;;2.37;1.57;;;9.80;99.90;;;;;;4989320;28;20759;-74
2024/04/01 07:05:32;;;;;;;2.30;1.60;;;9.80;99.90;;;;;;4984087;28;20625;-76
2024/04/01 07:08:00;;;;;;;3.90;2.00;;;9.80;99.90;;;;;;5007541;28;20711;-75
2024/04/01 07:10:27;;;;;;;3.40;2.17;;;9.80;99.90;;;;;;4976214;28;20631;-74
2024/04/01 07:12:54;;;;;;;1.43;1.33;;;9.90;99.90;;;;;;5017669;28;20634;-73
2024/04/01 07:15:21;;;;;;;2.10;1.50;;;9.80;99.90;;;;;;5030666;28;21185;-73
2024/04/01 07:17:46;;;;;;;1.40;1.30;;;9.70;99.90;;;;;;5059411;28;20634;-74
2024/04/01 07:20:14;;;;;;;2.50;1.23;;;9.60;99.90;;;;;;5025241;28;20982;-75
2024/04/01 07:22:40;;;;;;;1.33;1.23;;;9.70;99.90;;;;;;5026050;28;20200;-75
2024/04/01 07:25:08;;;;;;;2.20;1.67;;;9.80;99.90;;;;;;5044030;28;20672;-74
2024/04/01 07:27:34;;;;;;;2.43;1.57;;;9.70;99.90;;;;;;5036123;28;20668;-74
2024/04/01 07:30:02;;;;;;;4.50;2.47;;;9.70;99.90;;;;;;5052529;28;21062;-73
2024/04/01 07:32:28;;;;;;;3.47;3.00;;;9.60;99.90;;;;;;5018593;28;20664;-74
2024/04/01 07:34:56;;;;;;;4.47;2.37;;;9.60;99.90;;;;;;5004992;28;20626;-73
2024/04/01 07:37:22;;;;;;;22.40;13.30;;;9.60;99.90;;;;;;5003655;28;20697;-74
2024/04/01 07:39:48;;;;;;;16.57;10.30;;;9.60;99.90;;;;;;5025551;28;20645;-74
2024/04/01 07:42:16;;;;;;;4.63;2.67;;;9.60;99.90;;;;;;5019886;28;20205;-73
2024/04/01 07:44:43;;;;;;;2.93;2.47;;;9.60;99.90;;;;;;5069313;28;20664;-74
2024/04/01 07:47:09;;;;;;;6.17;3.37;;;9.60;99.90;;;;;;5032678;28;20661;-74
2024/04/01 07:49:36;;;;;;;3.90;2.00;;;9.60;99.90;;;;;;5022426;28;20660;-74
2024/04/01 07:52:03;;;;;;;3.50;2.10;;;9.70;99.90;;;;;;5021160;28;20199;-75
2024/04/01 07:54:29;;;;;;;1.87;1.70;;;9.70;99.90;;;;;;5016353;28;21009;-73
2024/04/01 07:56:57;;;;;;;2.43;2.20;;;9.70;99.90;;;;;;5027005;28;20640;-73
2024/04/01 07:59:25;;;;;;;1.80;1.60;;;9.70;99.90;;;;;;5035312;28;20738;-74
2024/04/01 08:01:51;;;;;;;2.30;1.83;;;9.80;99.90;;;;;;5053037;28;20628;-74
2024/04/01 08:04:17;;;;;;;2.23;1.73;;;9.80;99.90;;;;;;5023253;28;20638;-74
2024/04/01 08:06:43;;;;;;;1.73;1.63;;;9.90;99.90;;;;;;5036745;28;20543;-73
2024/04/01 08:09:10;;;;;;;2.03;1.87;;;9.90;99.90;;;;;;5017375;28;20688;-72
2024/04/01 08:11:36;;;;;;;2.20;2.00;;;9.90;99.90;;;;;;5012102;28;21216;-72
2024/04/01 08:14:03;;;;;;;6.67;1.97;;;9.90;99.90;;;;;;5001185;28;20622;-72
2024/04/01 08:16:30;;;;;;;2.43;1.70;;;10.00;99.90;;;;;;4990219;28;20573;-73
2024/04/01 08:18:57;;;;;;;3.60;1.53;;;10.00;99.90;;;;;;5019805;28;20969;-73
2024/04/01 08:21:23;;;;;;;2.30;1.30;;;10.00;99.90;;;;;;5009311;28;21212;-73
2024/04/01 08:23:50;;;;;;;0.90;0.80;;;10.00;99.90;;;;;;4988364;28;20636;-73
2024/04/01 08:26:16;;;;;;;1.50;1.00;;;9.60;99.90;;;;;;4970643;28;20222;-72
2024/04/01 08:28:42;;;;;;;0.97;0.97;;;9.60;99.90;;;;;;4969358;28;21217;-73
2024/04/01 08:31:08;;;;;;;1.97;1.00;;;9.70;99.90;;;;;;4978767;28;20202;-71
2024/04/01 08:33:37;;;;;;;1.03;0.50;;;9.40;99.90;;;;;;4972662;28;21166;-72
2024/04/01 08:36:04;;;;;;;0.70;0.70;;;9.30;99.90;;;;;;4976067;28;20289;-72
2024/04/01 08:38:31;;;;;;;1.70;1.23;;;9.20;99.90;;;;;;4981320;28;21193;-72
2024/04/01 08:41:00;;;;;;;0.50;0.50;;;9.30;99.90;;;;;;4988598;28;20638;-73
2024/04/01 08:43:34;;;;;;;0.50;0.50;;;9.20;99.90;;;;;;4976957;28;20642;-72
2024/04/01 08:46:00;;;;;;;0.60;0.60;;;9.20;99.90;;;;;;4993880;28;21250;-73
2024/04/01 08:48:31;;;;;;;0.80;0.70;;;9.30;99.90;;;;;;4978438;28;20673;-72
2024/04/01 08:51:02;;;;;;;1.60;0.53;;;9.40;99.90;;;;;;5053627;28;20629;-72
2024/04/01 08:53:45;;;;;;;0.80;0.60;;;9.40;99.90;;;;;;5007105;28;20763;-71
2024/04/01 08:56:10;;;;;;;0.50;0.50;;;9.40;99.90;;;;;;5047573;28;20625;-72
2024/04/01 08:58:37;;;;;;;0.50;0.30;;;9.50;99.90;;;;;;5008926;28;21393;-72
2024/04/01 09:01:03;;;;;;;0.60;0.60;;;9.40;99.90;;;;;;5016344;28;20206;-71
2024/04/01 09:03:30;;;;;;;0.53;0.40;;;9.50;99.90;;;;;;5054929;28;20626;-72
2024/04/01 09:05:58;;;;;;;1.70;0.70;;;9.50;99.90;;;;;;5011566;28;20641;-72
2024/04/01 09:08:25;;;;;;;1.00;0.90;;;9.50;99.90;;;;;;5002105;28;20661;-72
2024/04/01 09:10:52;;;;;;;1.47;0.40;;;9.50;99.90;;;;;;5034163;28;20636;-72
2024/04/01 09:13:20;;;;;;;0.53;0.53;;;9.50;99.90;;;;;;5035748;28;20633;-72
2024/04/01 09:15:46;;;;;;;0.50;0.50;;;9.50;99.90;;;;;;5042199;28;20636;-72
2024/04/01 09:18:13;;;;;;;0.43;0.43;;;9.50;99.90;;;;;;5010055;28;20631;-72
2024/04/01 09:20:40;;;;;;;0.73;0.60;;;9.60;99.90;;;;;;5040945;28;20641;-72
2024/04/01 09:23:08;;;;;;;1.10;0.47;;;9.80;99.90;;;;;;5010980;28;21511;-72
2024/04/01 09:25:35;;;;;;;0.70;0.50;;;10.00;99.90;;;;;;5035251;28;20644;-72
2024/04/01 09:28:02;;;;;;;0.40;0.40;;;10.20;99.90;;;;;;5053330;28;21260;-72
2024/04/01 09:30:28;;;;;;;0.47;0.30;;;10.30;99.90;;;;;;5059763;28;21178;-72
2024/04/01 09:32:56;;;;;;;0.90;0.53;;;10.30;99.90;;;;;;5024014;28;20628;-72
2024/04/01 09:35:23;;;;;;;0.67;0.53;;;10.30;99.90;;;;;;4989613;28;20649;-72
2024/04/01 09:37:50;;;;;;;0.60;0.50;;;10.40;99.90;;;;;;5007457;28;21018;-72
2024/04/01 09:40:18;;;;;;;0.43;0.40;;;10.40;99.90;;;;;;5053849;28;20630;-72
2024/04/01 09:42:45;;;;;;;0.40;0.40;;;10.40;99.90;;;;;;5058969;28;20626;-71
2024/04/01 09:45:12;;;;;;;1.27;0.40;;;10.30;99.90;;;;;;5031015;28;20629;-72
2024/04/01 09:47:39;;;;;;;0.30;0.30;;;10.20;99.90;;;;;;5022952;28;21006;-72
2024/04/01 09:50:05;;;;;;;0.40;0.37;;;10.10;99.90;;;;;;5010751;28;20634;-72
2024/04/01 09:52:32;;;;;;;0.40;0.40;;;10.00;99.90;;;;;;5025475;28;20631;-72
2024/04/01 09:55:06;;;;;;;0.40;0.37;;;10.10;99.90;;;;;;5047686;28;20635;-72
2024/04/01 09:58:10;;;;;;;0.60;0.50;;;10.30;99.90;;;;;;5019179;28;20719;-71
2024/04/01 10:00:50;;;;;;;0.37;0.30;;;10.40;99.90;;;;;;4993040;28;20633;-72
2024/04/01 10:03:50;;;;;;;0.77;0.50;;;10.20;99.90;;;;;;5001945;28;20637;-72
2024/04/01 10:06:45;;;;;;;0.70;0.40;;;10.40;99.90;;;;;;4980238;28;21466;-72
2024/04/01 10:10:00;;;;;;;1.03;0.47;;;10.60;99.90;;;;;;5030284;28;20743;-72
2024/04/01 10:13:03;;;;;;;0.37;0.27;;;10.80;99.90;;;;;;5001978;28;20628;-72
2024/04/01 10:15:58;;;;;;;3.80;0.30;;;10.80;99.90;;;;;;4977736;28;20684;-71
2024/04/01 10:18:44;;;;;;;0.40;0.37;;;10.80;99.90;;;;;;5004150;28;20630;-71
2024/04/01 10:21:37;;;;;;;0.40;0.30;;;10.80;99.90;;;;;;5036905;28;21083;-72
2024/04/01 10:24:36;;;;;;;0.60;0.30;;;10.70;99.50;;;;;;5065938;28;20631;-72
2024/04/01 10:27:37;;;;;;;0.40;0.30;;;10.60;99.80;;;;;;5068828;28;20639;-72
2024/04/01 10:30:46;;;;;;;0.50;0.40;;;10.40;99.90;;;;;;5069724;28;21195;-72
2024/04/01 10:33:58;;;;;;;0.50;0.30;;;10.40;99.50;;;;;;4960598;28;20698;-72
2024/04/01 10:36:40;;;;;;;0.50;0.30;;;10.30;98.80;;;;;;4987354;28;20669;-72
2024/04/01 10:39:46;;;;;;;0.50;0.30;;;10.50;99.30;;;;;;5014790;28;20634;-72
2024/04/01 10:42:34;;;;;;;0.30;0.20;;;10.30;98.10;;;;;;5013890;28;20701;-72
2024/04/01 10:45:47;;;;;;;0.30;0.20;;;10.30;98.40;;;;;;5009355;28;20733;-74
2024/04/01 10:48:17;;;;;;;0.50;0.30;;;10.40;99.00;;;;;;5016965;28;20994;-73
2024/04/01 10:51:05;;;;;;;1.20;0.60;;;10.40;98.00;;;;;;5024832;28;20628;-72
2024/04/01 10:53:56;;;;;;;0.40;0.20;;;10.50;98.20;;;;;;5014934;28;20740;-74
2024/04/01 10:56:59;;;;;;;0.83;0.80;;;10.40;96.90;;;;;;4976504;28;20967;-73
2024/04/01 10:59:52;;;;;;;0.50;0.30;;;10.50;98.00;;;;;;4984471;28;20644;-74
2024/04/01 11:02:46;;;;;;;0.50;0.30;;;10.60;98.20;;;;;;4961513;28;20638;-74
2024/04/01 11:05:35;;;;;;;0.77;0.40;;;10.70;98.60;;;;;;4966463;28;20646;-74
2024/04/01 11:08:12;;;;;;;0.80;0.40;;;10.70;97.40;;;;;;4984066;28;20676;-74
2024/04/01 11:10:39;;;;;;;0.30;0.30;;;10.90;97.80;;;;;;4992783;28;21178;-74
2024/04/01 11:13:11;;;;;;;0.40;0.20;;;10.80;96.90;;;;;;4975429;28;20639;-76
2024/04/01 11:15:39;;;;;;;0.40;0.30;;;10.70;97.00;;;;;;5040358;28;20631;-74
2024/04/01 11:18:25;;;;;;;0.30;0.30;;;10.50;95.50;;;;;;4974190;28;20691;-73
2024/04/01 11:20:57;;;;;;;0.50;0.27;;;10.40;96.50;;;;;;4978931;28;20628;-74
2024/04/01 11:23:46;;;;;;;0.40;0.30;;;10.50;97.80;;;;;;4988146;28;20636;-75
2024/04/01 11:26:33;;;;;;;0.40;0.30;;;10.70;98.90;;;;;;4991901;28;20633;-74
2024/04/01 11:29:14;;;;;;;0.60;0.33;;;10.70;99.40;;;;;;5029450;28;20703;-74
2024/04/01 11:31:47;;;;;;;0.60;0.30;;;10.40;98.50;;;;;;4992789;28;20634;-73
2024/04/01 11:34:19;;;;;;;0.50;0.30;;;10.50;99.40;;;;;;4991803;28;20658;-74
2024/04/01 11:36:58;;;;;;;0.30;0.30;;;10.40;99.30;;;;;;4985416;28;21103;-73
2024/04/01 11:39:27;;;;;;;0.87;0.40;;;10.50;99.50;;;;;;4985012;28;20626;-73
2024/04/01 11:41:55;;;;;;;0.50;0.50;;;10.30;99.20;;;;;;4983398;28;20626;-73
2024/04/01 11:44:28;;;;;;;1.13;0.70;;;10.20;99.90;;;;;;5014526;28;20632;-73
2024/04/01 11:46:55;;;;;;;0.50;0.30;;;10.30;99.90;;;;;;5045794;28;20606;-73
2024/04/01 11:49:23;;;;;;;0.67;0.40;;;10.30;99.90;;;;;;5013155;28;20665;-73
2024/04/01 11:51:52;;;;;;;1.47;0.60;;;10.40;99.70;;;;;;4980835;28;20622;-73
2024/04/01 11:54:26;;;;;;;0.40;0.20;;;10.30;98.90;;;;;;5033579;28;20621;-73
2024/04/01 11:56:52;;;;;;;0.40;0.20;;;10.20;98.90;;;;;;5013539;28;20965;-73
2024/04/01 11:59:28;;;;;;;0.40;0.40;;;10.10;98.90;;;;;;5052465;28;20624;-73
2024/04/01 12:01:54;;;;;;;0.37;0.27;;;10.10;98.50;;;;;;5039572;28;20653;-73
2024/04/01 12:04:22;;;;;;;1.40;1.30;;;10.10;98.20;;;;;;5034109;28;20679;-73
2024/04/01 12:06:48;;;;;;;0.73;0.70;;;10.00;97.90;;;;;;5018548;28;20636;-73
2024/04/01 12:09:18;;;;;;;0.40;0.30;;;10.10;96.80;;;;;;4986376;28;20665;-73
2024/04/01 12:11:46;;;;;;;1.43;1.00;;;10.30;97.10;;;;;;5030969;28;20725;-73
2024/04/01 12:14:13;;;;;;;2.93;1.70;;;10.50;97.10;;;;;;5030818;28;20686;-73
2024/04/01 12:16:44;;;;;;;0.50;0.37;;;10.60;96.50;;;;;;5039415;28;20752;-73
2024/04/01 12:19:12;;;;;;;1.37;1.07;;;10.60;96.10;;;;;;4973947;28;20638;-73
2024/04/01 12:21:44;;;;;;;0.30;0.30;;;10.70;96.10;;;;;;5021191;28;21163;-74
2024/04/01 12:24:11;;;;;;;0.40;0.40;;;10.80;96.10;;;;;;5010816;28;20669;-73
2024/04/01 12:26:38;;;;;;;0.37;0.23;;;10.90;96.20;;;;;;4970495;28;20653;-74
2024/04/01 12:29:07;;;;;;;0.40;0.40;;;10.70;94.70;;;;;;5007023;28;21073;-73
2024/04/01 12:31:36;;;;;;;0.50;0.40;;;10.90;95.40;;;;;;5001747;28;21203;-72
2024/04/01 12:34:03;;;;;;;1.03;0.50;;;11.20;95.70;;;;;;5025447;28;20633;-72
2024/04/01 12:36:31;;;;;;;0.50;0.20;;;11.30;95.60;;;;;;5000109;28;20625;-74
2024/04/01 12:38:59;;;;;;;0.50;0.30;;;11.30;94.10;;;;;;4992855;28;20635;-72
2024/04/01 12:41:27;;;;;;;0.30;0.30;;;11.20;93.20;;;;;;5037040;28;20692;-71
2024/04/01 12:43:55;;;;;;;0.30;0.20;;;11.30;93.90;;;;;;5047352;28;20629;-72
2024/04/01 12:46:25;;;;;;;0.40;0.30;;;11.10;93.30;;;;;;4971643;28;20635;-72
2024/04/01 12:48:56;;;;;;;0.40;0.20;;;11.00;92.30;;;;;;4969201;28;20661;-71
2024/04/01 12:51:25;;;;;;;0.40;0.20;;;11.00;92.30;;;;;;5041886;28;20692;-71
2024/04/01 12:54:18;;;;;;;0.40;0.33;;;11.00;92.30;;;;;;4988477;28;20755;-72
2024/04/01 12:56:55;;;;;;;0.40;0.23;;;11.10;93.30;;;;;;5011010;28;20629;-72
2024/04/01 12:59:45;;;;;;;0.73;0.73;;;11.40;92.70;;;;;;5024671;28;20620;-73
2024/04/01 13:02:39;;;;;;;0.37;0.20;;;11.40;93.20;;;;;;4997652;28;20641;-69
2024/04/01 13:05:15;;;;;;;0.30;0.30;;;11.50;92.30;;;;;;5008254;28;20629;-74